Time;durP1;ratioP1;P1;durP2;ratioP2;P2;SDS_P1;SDS_P2;PMS_P1;PMS_P2;Temp;Humidity;BMP_temperature;BMP_pressure;BME280_temperature;BME280_humidity;BME280_pressure;Samples;Min_cycle;Max_cycle;Signal;HPM_P1;HPM_P2
2021/12/22 00:00:49;;;;;;;67.80;48.63;;;;;;;-0.78;59.43;101167.41;5070128;28;20564;-21
2021/12/22 00:03:15;;;;;;;84.30;55.20;;;;;;;-0.60;58.73;101150.28;5070327;28;20051;-21
2021/12/22 00:05:45;;;;;;;41.53;26.95;;;;;;;-0.71;60.52;101179.09;5070011;28;20032;-21
2021/12/22 00:08:13;;;;;;;88.07;67.00;;;;;;;-0.77;59.95;101158.63;5051272;28;20047;-21
2021/12/22 00:10:42;;;;;;;26.15;15.32;;;;;;;-0.30;60.04;101182.91;5070160;28;20115;-21
2021/12/22 00:13:07;;;;;;;20.95;12.18;;;;;;;-0.55;60.38;101176.97;5052184;28;20036;-22
2021/12/22 00:15:33;;;;;;;17.15;10.00;;;;;;;-0.55;59.99;101182.22;5069581;28;20768;-21
2021/12/22 00:17:58;;;;;;;36.45;20.38;;;;;;;-0.56;59.19;101183.16;5069844;28;20043;-21
2021/12/22 00:20:24;;;;;;;52.95;27.40;;;;;;;-0.90;61.84;101180.50;5069866;28;20039;-21
2021/12/22 00:22:49;;;;;;;44.75;27.40;;;;;;;-0.76;60.98;101186.47;5069750;28;20036;-21
2021/12/22 00:25:16;;;;;;;27.67;16.70;;;;;;;-0.54;60.99;101186.47;5069829;28;20032;-20
2021/12/22 00:27:41;;;;;;;49.45;31.13;;;;;;;-0.68;61.63;101190.16;5069364;28;20067;-21
2021/12/22 00:30:07;;;;;;;68.25;34.50;;;;;;;-0.64;61.42;101196.00;5048112;28;20136;-21
2021/12/22 00:32:35;;;;;;;47.30;22.67;;;;;;;-0.74;61.25;101195.88;5049524;28;20154;-21
2021/12/22 00:35:01;;;;;;;25.43;14.47;;;;;;;-0.69;60.85;101177.19;5049460;28;20546;-21
2021/12/22 00:37:28;;;;;;;29.20;15.30;;;;;;;-0.66;60.95;101188.25;5049254;28;20032;-21
2021/12/22 00:39:53;;;;;;;32.63;19.30;;;;;;;-0.91;61.73;101170.97;5048332;28;20037;-21
2021/12/22 00:42:19;;;;;;;32.28;15.13;;;;;;;-1.01;61.11;101167.38;5049558;28;20037;-20
2021/12/22 00:44:50;;;;;;;30.13;16.20;;;;;;;-0.87;61.25;101188.13;5049344;28;20033;-21
2021/12/22 00:47:18;;;;;;;40.28;26.13;;;;;;;-0.81;60.49;101194.69;5049311;28;20029;-21
2021/12/22 00:49:44;;;;;;;;;;;;;;;-0.95;61.36;101200.97;5049470;28;20055;-21
2021/12/22 00:52:09;;;;;;;41.53;23.25;;;;;;;-1.25;61.84;101184.00;5047687;28;20404;-21
2021/12/22 00:54:35;;;;;;;31.83;18.10;;;;;;;-1.06;62.00;101196.53;5049515;28;20064;-20
2021/12/22 00:57:05;;;;;;;26.38;14.38;;;;;;;-1.16;62.09;101200.81;5047826;28;20040;-21
2021/12/22 00:59:34;;;;;;;22.58;13.13;;;;;;;-1.59;63.80;101192.66;5048788;28;20029;-21
2021/12/22 01:02:00;;;;;;;31.52;17.27;;;;;;;-1.74;64.16;101168.47;5031123;28;20088;-21
2021/12/22 01:04:26;;;;;;;25.20;13.52;;;;;;;-1.76;65.13;101189.50;5048823;28;20063;-21
2021/12/22 01:06:51;;;;;;;23.00;14.10;;;;;;;-1.95;65.58;101187.38;5049104;28;20036;-21
2021/12/22 01:09:17;;;;;;;29.38;15.30;;;;;;;-1.86;66.67;101183.25;5049048;28;20037;-21
2021/12/22 01:11:42;;;;;;;26.52;14.35;;;;;;;-1.40;64.21;101192.16;5048552;28;20095;-20
2021/12/22 01:14:08;;;;;;;30.13;15.85;;;;;;;-1.01;62.78;101189.16;5048758;28;20051;-21
2021/12/22 01:16:34;;;;;;;32.30;15.63;;;;;;;-1.22;62.94;101181.16;5048732;28;20612;-21
2021/12/22 01:19:03;;;;;;;33.47;17.08;;;;;;;-0.88;61.99;101189.09;5047699;28;20040;-21
2021/12/22 01:21:41;;;;;;;38.63;19.80;;;;;;;-1.02;61.51;101192.75;5048572;28;20029;-21
2021/12/22 01:24:20;;;;;;;33.47;16.77;;;;;;;-1.14;62.28;101187.63;5048882;28;20175;-21
2021/12/22 01:26:51;;;;;;;36.72;16.60;;;;;;;-0.86;61.37;101186.34;5048502;28;20033;-20
2021/12/22 01:29:17;;;;;;;38.05;17.38;;;;;;;-1.03;61.76;101185.81;5057459;28;20470;-21
2021/12/22 01:31:43;;;;;;;34.55;16.90;;;;;;;-1.19;63.15;101164.38;5049980;28;20071;-21
2021/12/22 01:34:09;;;;;;;31.77;15.93;;;;;;;-0.71;61.39;101189.59;5068445;28;20037;-21
2021/12/22 01:36:34;;;;;;;30.98;15.65;;;;;;;-1.18;61.72;101165.22;5068532;28;20028;-21
2021/12/22 01:39:00;;;;;;;28.05;14.38;;;;;;;-1.25;62.57;101178.78;5068363;28;20109;-21
2021/12/22 01:41:25;;;;;;;28.40;15.00;;;;;;;-1.25;62.48;101191.88;5067965;28;20024;-21
2021/12/22 01:43:51;;;;;;;26.50;14.30;;;;;;;-1.32;62.39;101176.72;5050365;28;20079;-21
2021/12/22 01:49:11;;;;;;;28.08;14.52;;;;;;;-1.76;63.78;101181.66;5068198;28;20102;-21
2021/12/22 01:51:56;;;;;;;35.72;18.55;;;;;;;-1.53;63.33;101186.97;5067863;28;20039;-21
2021/12/22 01:54:21;;;;;;;29.05;16.27;;;;;;;-1.79;65.01;101183.69;5068093;28;20039;-21
2021/12/22 01:56:47;;;;;;;33.15;20.88;;;;;;;-1.34;62.93;101183.84;5068139;28;20388;-21
2021/12/22 01:59:13;;;;;;;34.95;18.63;;;;;;;-0.92;62.06;101171.94;5067769;28;20455;-21
2021/12/22 02:01:39;;;;;;;40.17;21.30;;;;;;;-1.16;62.13;101181.66;5067810;28;20028;-21
2021/12/22 02:04:06;;;;;;;29.30;14.52;;;;;;;-1.40;62.06;101155.53;5068084;28;20036;-22
2021/12/22 02:06:31;;;;;;;31.85;16.25;;;;;;;-1.15;62.38;101178.06;5068172;28;20488;-21
2021/12/22 02:08:58;;;;;;;37.53;20.55;;;;;;;-1.26;61.92;101174.47;5068355;28;20048;-20
2021/12/22 02:11:24;;;;;;;36.33;18.50;;;;;;;-1.01;62.15;101188.34;5049869;28;20028;-21
2021/12/22 02:14:02;;;;;;;40.70;23.67;;;;;;;-1.18;61.94;101166.06;5067534;28;20043;-21
2021/12/22 02:16:31;;;;;;;29.27;16.42;;;;;;;-1.42;62.59;101164.31;5067806;28;20856;-21
2021/12/22 02:18:57;;;;;;;27.55;14.98;;;;;;;-1.01;61.17;101185.72;5067667;28;20040;-21
2021/12/22 02:21:25;;;;;;;30.38;16.67;;;;;;;-1.11;61.49;101182.97;5067591;28;20047;-21
2021/12/22 02:23:52;;;;;;;23.90;13.40;;;;;;;-1.24;62.10;101182.22;5067609;28;20037;-21
2021/12/22 02:26:22;;;;;;;27.10;13.73;;;;;;;-1.43;62.41;101185.34;5067666;28;20036;-21
2021/12/22 02:28:56;;;;;;;34.60;17.30;;;;;;;-1.48;62.51;101159.53;5067041;28;20546;-20
2021/12/22 02:31:22;;;;;;;36.22;17.83;;;;;;;-1.93;63.65;101174.19;5067383;28;20024;-22
2021/12/22 02:33:49;;;;;;;48.05;23.35;;;;;;;-2.36;64.99;101182.47;5067547;28;20031;-21
2021/12/22 02:38:46;;;;;;;23.02;11.75;;;;;;;-3.04;65.82;101174.06;5067645;28;20045;-22
2021/12/22 02:41:13;;;;;;;23.30;12.60;;;;;;;-3.16;66.73;101188.78;5067506;28;20577;-22
2021/12/22 02:43:57;;;;;;;21.35;11.07;;;;;;;-3.03;65.94;101173.94;5066963;28;20032;-21
2021/12/22 02:46:24;;;;;;;21.63;12.10;;;;;;;-2.92;66.03;101162.81;5067697;28;20051;-20
2021/12/22 02:48:49;;;;;;;24.77;12.30;;;;;;;-3.24;67.19;101159.75;5067360;28;20463;-22
2021/12/22 02:51:15;;;;;;;23.55;11.88;;;;;;;-2.94;65.92;101164.69;5067514;28;20032;-21
2021/12/22 02:56:24;;;;;;;22.75;13.05;;;;;;;-2.87;66.82;101173.75;5067136;28;20040;-21
2021/12/22 03:06:23;;;;;;;;;;;;;;;-2.91;66.50;101190.56;5067869;28;20048;-20
2021/12/22 03:08:49;;;;;;;105.90;54.10;;;;;;;-2.65;64.89;101182.72;5067573;28;19908;-21
2021/12/22 03:11:14;;;;;;;32.58;17.60;;;;;;;-2.89;65.42;101186.06;5067407;28;20032;-21
2021/12/22 03:13:40;;;;;;;22.75;11.15;;;;;;;-2.99;65.89;101179.81;5048738;28;20033;-21
2021/12/22 03:16:05;;;;;;;22.55;12.27;;;;;;;-3.09;66.61;101182.19;5067228;28;20086;-22
2021/12/22 03:18:31;;;;;;;21.33;12.05;;;;;;;-3.21;67.01;101159.53;5067254;28;20032;-21
2021/12/22 03:21:06;;;;;;;23.40;11.48;;;;;;;-2.94;66.47;101188.16;5049117;28;20495;-20
2021/12/22 03:23:31;;;;;;;26.35;13.80;;;;;;;-2.59;64.79;101202.38;5050531;28;20036;-22
2021/12/22 03:25:58;;;;;;;24.05;12.90;;;;;;;-2.51;64.32;101206.13;5067433;28;20029;-22
2021/12/22 03:28:24;;;;;;;23.17;11.70;;;;;;;-2.53;64.26;101208.00;5066943;28;20033;-21
2021/12/22 03:30:52;;;;;;;25.65;13.25;;;;;;;-2.10;63.14;101204.19;5067087;28;20111;-22
2021/12/22 03:33:17;;;;;;;39.10;19.25;;;;;;;-1.94;61.96;101206.50;5067255;28;20029;-21
2021/12/22 03:35:43;;;;;;;59.53;26.25;;;;;;;-2.63;62.47;101186.91;5066473;28;20056;-20
2021/12/22 03:38:08;;;;;;;59.45;28.83;;;;;;;-2.78;64.49;101208.00;5067032;28;20549;-21
2021/12/22 03:40:34;;;;;;;59.38;27.02;;;;;;;-2.88;65.01;101202.56;5066874;28;20040;-21
2021/12/22 03:42:59;;;;;;;55.90;25.90;;;;;;;-2.70;64.04;101222.19;5069466;28;20032;-21
2021/12/22 03:45:25;;;;;;;65.40;29.88;;;;;;;-3.11;65.68;101207.53;5070234;28;20412;-21
2021/12/22 03:47:50;;;;;;;64.53;30.23;;;;;;;-3.21;65.55;101190.84;5070431;28;20407;-20
2021/12/22 03:50:17;;;;;;;71.70;29.35;;;;;;;-3.57;67.62;101210.59;5052543;28;20028;-21
2021/12/22 03:52:43;;;;;;;65.88;30.65;;;;;;;-3.34;66.49;101187.38;5070324;28;20032;-21
2021/12/22 03:55:09;;;;;;;80.03;35.05;;;;;;;-2.77;64.99;101188.81;5070106;28;20025;-21
2021/12/22 03:57:34;;;;;;;52.85;26.58;;;;;;;-2.84;65.07;101220.53;5070193;28;20025;-21
2021/12/22 04:00:00;;;;;;;52.92;24.48;;;;;;;-3.19;66.27;101204.63;5070057;28;20400;-21
2021/12/22 04:02:27;;;;;;;65.43;31.05;;;;;;;-3.48;67.92;101209.97;5070398;28;20085;-22
2021/12/22 04:04:52;;;;;;;55.05;26.52;;;;;;;-3.18;66.38;101215.91;5070190;28;20146;-22
2021/12/22 04:07:18;;;;;;;54.22;25.02;;;;;;;-2.86;66.18;101224.19;5070197;28;20496;-21
2021/12/22 04:09:43;;;;;;;45.47;22.42;;;;;;;-2.70;66.34;101221.38;5070319;28;20032;-21
2021/12/22 04:12:09;;;;;;;45.13;20.45;;;;;;;-2.86;65.53;101183.25;5070034;28;20043;-21
2021/12/22 04:14:35;;;;;;;39.92;19.67;;;;;;;-2.46;64.96;101224.09;5070032;28;20016;-21
2021/12/22 04:17:00;;;;;;;41.25;20.92;;;;;;;-2.78;65.62;101187.13;5069837;28;20036;-22
2021/12/22 04:19:26;;;;;;;38.95;20.80;;;;;;;-2.58;64.64;101225.75;5051510;28;20032;-21
2021/12/22 04:21:51;;;;;;;50.53;25.05;;;;;;;-2.49;64.50;101224.31;5069783;28;20484;-21
2021/12/22 04:24:18;;;;;;;68.85;32.60;;;;;;;-2.70;64.96;101231.81;5051726;28;20032;-21
2021/12/22 04:26:43;;;;;;;60.72;28.73;;;;;;;-2.65;64.65;101229.75;5069559;28;20496;-21
2021/12/22 04:29:12;;;;;;;51.90;25.00;;;;;;;-2.29;63.67;101228.13;5069361;28;20056;-21
2021/12/22 04:31:38;;;;;;;46.92;23.17;;;;;;;-2.60;64.64;101238.06;5069577;28;20035;-21
2021/12/22 04:34:07;;;;;;;50.85;24.30;;;;;;;-2.65;64.85;101230.56;5069375;28;20036;-21
2021/12/22 04:36:34;;;;;;;44.10;21.40;;;;;;;-2.64;64.99;101240.06;5069612;28;20121;-21
2021/12/22 04:39:00;;;;;;;46.33;23.55;;;;;;;-2.79;65.74;101235.06;5068899;28;20062;-21
2021/12/22 04:41:26;;;;;;;55.67;26.50;;;;;;;-2.66;64.60;101238.50;5069272;28;20066;-21
2021/12/22 04:43:52;;;;;;;54.70;26.13;;;;;;;-2.68;64.84;101235.16;5069336;28;20059;-21
2021/12/22 04:46:22;;;;;;;65.43;33.75;;;;;;;-2.92;64.98;101241.09;5069550;28;20028;-21
2021/12/22 04:48:48;;;;;;;63.90;31.63;;;;;;;-2.80;65.28;101241.22;5051841;28;20033;-21
2021/12/22 04:51:23;;;;;;;59.08;30.92;;;;;;;-2.75;64.86;101228.69;5069229;28;20032;-21
2021/12/22 04:54:05;;;;;;;56.35;30.00;;;;;;;-2.66;65.16;101246.34;5069198;28;20033;-21
2021/12/22 04:56:31;;;;;;;63.10;30.83;;;;;;;-2.99;66.21;101226.78;5069220;28;20028;-21
2021/12/22 04:58:56;;;;;;;51.85;29.38;;;;;;;-2.91;65.99;101236.72;5069151;28;20466;-21
2021/12/22 05:01:22;;;;;;;59.28;29.05;;;;;;;-2.95;66.29;101249.13;5069247;28;20033;-21
2021/12/22 05:03:47;;;;;;;49.53;25.95;;;;;;;-2.87;65.85;101244.22;5068800;28;20108;-21
2021/12/22 05:06:13;;;;;;;48.33;25.65;;;;;;;-2.83;66.22;101250.91;5068774;28;20044;-21
2021/12/22 05:08:38;;;;;;;49.83;26.50;;;;;;;-2.76;65.28;101237.44;5068999;28;20557;-21
2021/12/22 05:11:04;;;;;;;45.75;26.05;;;;;;;-2.71;65.42;101236.22;5068560;28;20032;-21
2021/12/22 05:13:30;;;;;;;45.92;23.50;;;;;;;-2.62;65.05;101242.56;5068442;28;20028;-21
2021/12/22 05:15:55;;;;;;;41.05;24.73;;;;;;;-2.65;64.83;101232.34;5068771;28;20060;-21
2021/12/22 05:18:48;;;;;;;39.80;24.13;;;;;;;-2.49;63.93;101253.88;5068608;28;20043;-21
2021/12/22 05:21:09;;;;;;;49.08;27.08;;;;;;;-3.26;65.45;101239.88;5067899;28;20121;-21
2021/12/22 05:23:34;;;;;;;47.17;27.05;;;;;;;-4.06;69.16;101251.03;5068798;28;20040;-21
2021/12/22 05:26:00;;;;;;;57.42;29.13;;;;;;;-4.30;69.24;101226.47;5068784;28;20117;-21
2021/12/22 05:28:25;;;;;;;61.35;30.52;;;;;;;-4.36;70.62;101247.69;5068410;28;20043;-21
2021/12/22 05:30:51;;;;;;;88.70;42.58;;;;;;;-4.15;69.81;101246.38;5068653;28;20028;-21
2021/12/22 05:33:16;;;;;;;76.70;33.97;;;;;;;-3.52;67.08;101250.22;5068553;28;20036;-21
2021/12/22 05:35:42;;;;;;;58.78;31.38;;;;;;;-3.47;67.19;101249.94;5068425;28;20029;-21
2021/12/22 05:38:07;;;;;;;66.32;34.03;;;;;;;-3.60;67.64;101249.06;5068245;28;20568;-21
2021/12/22 05:40:33;;;;;;;59.22;31.02;;;;;;;-3.25;66.45;101258.06;5050001;28;20045;-22
2021/12/22 05:42:58;;;;;;;59.95;30.58;;;;;;;-3.74;66.37;101236.88;5068368;28;20496;-21
2021/12/22 05:45:25;;;;;;;70.93;34.35;;;;;;;-3.69;67.41;101274.78;5067990;28;20025;-21
2021/12/22 05:47:52;;;;;;;62.50;34.60;;;;;;;-3.92;67.53;101272.78;5067909;28;20028;-20
2021/12/22 05:50:18;;;;;;;86.00;42.83;;;;;;;-4.59;69.68;101257.72;5068483;28;20035;-21
2021/12/22 05:52:43;;;;;;;81.75;41.08;;;;;;;-4.53;70.32;101278.19;5050130;28;20028;-20
2021/12/22 05:55:09;;;;;;;69.93;33.10;;;;;;;-5.04;70.51;101230.91;5067785;28;20040;-21
2021/12/22 05:57:34;;;;;;;70.03;34.72;;;;;;;-4.56;70.33;101277.53;5067873;28;20028;-21
2021/12/22 06:00:00;;;;;;;95.72;45.78;;;;;;;-4.24;69.45;101265.19;5068132;28;20059;-21
2021/12/22 06:02:25;;;;;;;130.30;53.78;;;;;;;-4.03;68.77;101286.47;5067896;28;20028;-21
2021/12/22 06:04:51;;;;;;;127.22;53.30;;;;;;;-3.90;67.97;101286.56;5067572;28;20029;-21
2021/12/22 06:07:16;;;;;;;94.15;44.58;;;;;;;-4.17;68.32;101286.47;5067786;28;20420;-21
2021/12/22 06:09:41;;;;;;;163.48;66.20;;;;;;;-4.54;70.38;101284.31;5067681;28;20036;-21
2021/12/22 06:12:07;;;;;;;105.78;46.83;;;;;;;-4.26;68.60;101272.25;5067751;28;20024;-21
2021/12/22 06:14:32;;;;;;;85.30;42.00;;;;;;;-4.06;67.76;101261.44;5067687;28;20036;-21
2021/12/22 06:16:58;;;;;;;106.72;46.05;;;;;;;-4.31;69.67;101295.13;5067806;28;20036;-21
2021/12/22 06:19:23;;;;;;;113.30;49.28;;;;;;;-3.81;69.12;101306.81;5067545;28;20570;-21
2021/12/22 06:21:50;;;;;;;104.60;48.50;;;;;;;-4.25;69.64;101279.13;5067572;28;20024;-21
2021/12/22 06:24:16;;;;;;;137.88;56.45;;;;;;;-3.75;68.99;101306.44;5067688;28;20484;-21
2021/12/22 06:26:41;;;;;;;133.27;57.15;;;;;;;-3.94;68.92;101305.91;5067817;28;20093;-21
2021/12/22 06:29:06;;;;;;;138.70;56.50;;;;;;;-4.26;69.79;101285.28;5067416;28;20105;-21
2021/12/22 06:31:32;;;;;;;121.65;54.35;;;;;;;-3.85;68.90;101305.34;5067434;28;20488;-21
2021/12/22 06:33:57;;;;;;;188.35;84.65;;;;;;;-3.68;68.35;101294.72;5067447;28;20030;-21
2021/12/22 06:36:23;;;;;;;119.03;53.65;;;;;;;-3.65;68.47;101302.31;5067526;28;20037;-21
2021/12/22 06:38:48;;;;;;;157.00;69.07;;;;;;;-3.30;67.82;101307.06;5067795;28;20033;-21
2021/12/22 06:41:14;;;;;;;183.60;86.55;;;;;;;-3.50;68.50;101297.91;5049555;28;20024;-21
2021/12/22 06:43:39;;;;;;;137.40;67.30;;;;;;;-3.14;67.76;101299.09;5067245;28;20036;-21
2021/12/22 06:46:04;;;;;;;71.28;36.42;;;;;;;-3.37;70.34;101303.19;5067458;28;20025;-21
2021/12/22 06:48:30;;;;;;;64.32;32.58;;;;;;;-3.18;70.44;101296.78;5067776;28;20439;-21
2021/12/22 06:50:55;;;;;;;69.68;34.03;;;;;;;-3.43;71.14;101300.97;5067356;28;20029;-21
2021/12/22 06:53:21;;;;;;;70.13;34.83;;;;;;;-3.76;72.41;101310.00;5067515;28;20097;-21
2021/12/22 06:55:46;;;;;;;53.95;26.65;;;;;;;-3.65;72.38;101307.53;5067028;28;20025;-21
2021/12/22 06:58:12;;;;;;;59.78;28.30;;;;;;;-3.55;71.45;101288.72;5067567;28;20037;-21
2021/12/22 07:00:37;;;;;;;55.97;28.25;;;;;;;-3.29;71.42;101310.50;5067148;28;20024;-21
2021/12/22 07:03:05;;;;;;;48.05;24.42;;;;;;;-2.97;70.28;101303.19;5067142;28;20112;-20
2021/12/22 07:05:30;;;;;;;40.22;19.65;;;;;;;-3.32;71.94;101302.91;5067132;28;20028;-21
2021/12/22 07:07:56;;;;;;;39.40;19.67;;;;;;;-3.37;73.15;101308.41;5067239;28;20086;-21
2021/12/22 07:10:21;;;;;;;29.95;15.85;;;;;;;-3.49;73.26;101296.16;5067310;28;20029;-22
2021/12/22 07:12:47;;;;;;;31.13;15.77;;;;;;;-2.92;72.34;101306.38;5067381;28;20408;-22
2021/12/22 07:15:14;;;;;;;28.95;14.32;;;;;;;-2.71;72.33;101303.28;5067380;28;20025;-21
2021/12/22 07:17:44;;;;;;;26.73;14.38;;;;;;;-2.63;71.67;101306.19;5069341;28;20855;-22
2021/12/22 07:20:10;;;;;;;26.25;14.02;;;;;;;-2.11;70.42;101307.03;5070932;28;20029;-21
2021/12/22 07:22:35;;;;;;;31.48;15.75;;;;;;;-1.67;68.39;101316.16;5052793;28;20456;-22
2021/12/22 07:25:01;;;;;;;31.40;15.93;;;;;;;-1.56;68.16;101312.78;5071424;28;20077;-21
2021/12/22 07:27:26;;;;;;;39.55;20.15;;;;;;;-1.69;67.67;101311.03;5052827;28;20865;-21
2021/12/22 07:29:52;;;;;;;37.00;20.30;;;;;;;-2.12;69.42;101290.53;5070691;28;20067;-21
2021/12/22 07:32:17;;;;;;;36.30;17.85;;;;;;;-2.22;70.04;101316.44;5070924;28;20487;-22
2021/12/22 07:34:56;;;;;;;34.03;17.98;;;;;;;-2.07;69.91;101304.09;5070485;28;20078;-21
2021/12/22 07:37:22;;;;;;;47.97;22.80;;;;;;;-1.57;67.75;101321.56;5070763;28;20039;-22
2021/12/22 07:39:47;;;;;;;36.83;18.73;;;;;;;-1.45;66.91;101311.06;5070387;28;20025;-21
2021/12/22 07:42:13;;;;;;;42.95;21.58;;;;;;;-1.30;67.61;101309.13;5070409;28;20046;-21
2021/12/22 07:44:38;;;;;;;89.28;41.70;;;;;;;-1.48;67.01;101310.47;5070373;28;20036;-21
2021/12/22 07:47:04;;;;;;;170.32;74.18;;;;;;;-1.47;66.61;101325.19;5070852;28;20040;-21
2021/12/22 07:49:29;;;;;;;34.55;19.27;;;;;;;-1.34;68.28;101326.00;5070444;28;20086;-21
2021/12/22 07:51:55;;;;;;;81.32;35.65;;;;;;;-1.30;66.68;101331.84;5070431;28;20029;-21
2021/12/22 07:54:20;;;;;;;82.63;34.28;;;;;;;-1.11;66.58;101329.56;5070152;28;20044;-21
2021/12/22 07:56:46;;;;;;;27.65;14.40;;;;;;;-1.07;65.72;101335.41;5070536;28;20043;-21
2021/12/22 07:59:11;;;;;;;30.67;15.48;;;;;;;-0.97;65.59;101336.41;5070307;28;20488;-21
2021/12/22 08:01:37;;;;;;;36.20;20.42;;;;;;;-0.82;64.69;101323.97;5069879;28;20037;-21
2021/12/22 08:04:02;;;;;;;25.95;14.50;;;;;;;-0.70;63.78;101314.34;5070051;28;20020;-21
2021/12/22 08:06:28;;;;;;;43.78;26.20;;;;;;;-0.90;62.67;101331.53;5070005;28;20035;-21
2021/12/22 08:08:53;;;;;;;31.92;17.30;;;;;;;-0.98;63.40;101319.03;5052274;28;20396;-21
2021/12/22 08:11:19;;;;;;;26.40;15.27;;;;;;;-0.84;62.68;101338.94;5070062;28;20032;-20
2021/12/22 08:13:44;;;;;;;30.30;16.27;;;;;;;-0.43;61.97;101337.63;5069629;28;20028;-21
2021/12/22 08:16:10;;;;;;;23.77;14.63;;;;;;;-0.37;61.10;101334.56;5069902;28;20641;-20
2021/12/22 08:18:35;;;;;;;34.92;20.15;;;;;;;-0.30;59.79;101324.47;5069793;28;20024;-22
2021/12/22 08:21:00;;;;;;;56.28;29.00;;;;;;;-0.24;60.16;101355.44;5070152;28;20044;-21
2021/12/22 08:23:26;;;;;;;23.98;13.02;;;;;;;0.15;59.45;101356.78;5069807;28;20037;-21
2021/12/22 08:25:51;;;;;;;67.32;36.80;;;;;;;-0.17;59.05;101324.34;5069790;28;20067;-20
2021/12/22 08:28:17;;;;;;;39.65;22.30;;;;;;;0.20;58.81;101343.28;5068724;28;20044;-21
2021/12/22 08:30:42;;;;;;;27.33;13.88;;;;;;;0.13;57.51;101356.06;5069794;28;20070;-21
2021/12/22 08:33:20;;;;;;;42.47;28.45;;;;;;;0.24;57.61;101346.53;5069473;28;20044;-22
2021/12/22 08:38:56;;;;;;;57.65;28.40;;;;;;;-0.18;57.76;101326.13;5069557;28;20258;-21
2021/12/22 08:41:30;;;;;;;19.75;11.10;;;;;;;0.34;57.27;101345.66;5069660;28;20051;-21
2021/12/22 08:43:57;;;;;;;23.48;13.75;;;;;;;0.70;54.94;101332.38;5069699;28;20492;-20
2021/12/22 08:46:22;;;;;;;21.42;14.55;;;;;;;0.38;55.54;101347.09;5069627;28;20060;-21
2021/12/22 08:48:48;;;;;;;26.77;14.07;;;;;;;0.57;55.17;101348.25;5069196;28;20063;-21
2021/12/22 08:51:13;;;;;;;42.58;24.35;;;;;;;0.84;53.93;101331.25;5069151;28;20036;-22
2021/12/22 08:53:39;;;;;;;124.90;58.25;;;;;;;1.36;53.59;101332.25;5069013;28;20025;-21
2021/12/22 08:56:04;;;;;;;70.20;37.03;;;;;;;1.68;51.30;101315.56;5069293;28;20069;-21
2021/12/22 08:58:30;;;;;;;35.40;19.05;;;;;;;1.54;53.18;101322.81;5069237;28;20086;-21
2021/12/22 09:00:55;;;;;;;21.38;11.95;;;;;;;1.47;52.62;101328.69;5068978;28;20024;-21
2021/12/22 09:03:21;;;;;;;22.70;13.07;;;;;;;1.85;50.29;101333.38;5069299;28;20495;-21
2021/12/22 09:05:46;;;;;;;35.35;17.23;;;;;;;2.17;51.28;101332.41;5068558;28;20601;-21
2021/12/22 09:08:12;;;;;;;72.05;33.45;;;;;;;2.24;51.59;101328.25;5069256;28;20113;-20
2021/12/22 09:10:37;;;;;;;47.63;17.77;;;;;;;2.05;51.42;101301.91;5069074;28;20028;-21
2021/12/22 09:13:03;;;;;;;24.55;12.73;;;;;;;1.55;51.56;101315.75;5068740;28;20028;-22
2021/12/22 09:15:28;;;;;;;26.60;17.48;;;;;;;1.71;52.27;101310.03;5068573;28;20031;-21
2021/12/22 09:17:54;;;;;;;33.97;22.40;;;;;;;1.87;51.19;101320.91;5068766;28;20522;-21
2021/12/22 09:20:19;;;;;;;42.25;25.23;;;;;;;2.17;50.18;101312.19;5068607;28;20137;-21
2021/12/22 09:22:45;;;;;;;30.40;14.52;;;;;;;1.87;50.54;101315.66;5068767;28;20454;-21
2021/12/22 09:25:10;;;;;;;36.92;17.63;;;;;;;1.99;49.62;101300.63;5068692;28;20029;-21
2021/12/22 09:27:36;;;;;;;37.10;20.90;;;;;;;2.11;50.54;101319.78;5068255;28;20090;-21
2021/12/22 09:30:02;;;;;;;21.15;12.40;;;;;;;1.72;51.80;101288.03;5068625;28;20056;-21
2021/12/22 09:32:28;;;;;;;21.08;12.38;;;;;;;1.89;51.46;101276.91;5068600;28;20040;-20
2021/12/22 09:34:53;;;;;;;23.55;13.10;;;;;;;2.71;48.40;101299.53;5050455;28;20039;-20
2021/12/22 09:37:19;;;;;;;21.25;11.70;;;;;;;2.16;48.36;101293.88;5068604;28;20028;-21
2021/12/22 09:39:45;;;;;;;20.42;11.48;;;;;;;2.13;49.63;101273.13;5067042;28;20059;-21
2021/12/22 09:42:11;;;;;;;22.40;11.90;;;;;;;2.58;49.24;101296.34;5068166;28;20025;-21
2021/12/22 09:44:43;;;;;;;17.15;9.88;;;;;;;2.83;48.23;101292.34;5068322;28;20091;-20
2021/12/22 09:47:10;;;;;;;17.15;9.88;;;;;;;2.08;49.72;101285.81;5051379;28;20411;-21
2021/12/22 09:52:18;;;;;;;17.80;9.85;;;;;;;2.31;48.82;101282.03;5068182;28;20028;-20
2021/12/22 09:54:44;;;;;;;18.35;10.90;;;;;;;2.57;48.06;101260.44;5068069;28;20056;-21
2021/12/22 09:57:11;;;;;;;20.10;11.35;;;;;;;2.60;47.91;101270.72;5068238;28;20035;-20
2021/12/22 09:59:36;;;;;;;16.65;10.60;;;;;;;2.51;49.26;101269.72;5067839;28;20116;-21
2021/12/22 10:02:03;;;;;;;16.85;10.40;;;;;;;3.04;47.48;101265.84;5067840;28;20032;-20
2021/12/22 10:04:28;;;;;;;19.25;11.65;;;;;;;3.02;47.21;101251.97;5067953;28;20038;-21
2021/12/22 10:06:54;;;;;;;20.92;11.88;;;;;;;3.78;46.35;101266.91;5067815;28;20040;-21
2021/12/22 10:09:23;;;;;;;22.02;11.07;;;;;;;2.93;45.58;101251.00;5067865;28;20028;-20
2021/12/22 10:11:49;;;;;;;20.02;10.90;;;;;;;2.65;49.01;101265.84;5067859;28;20090;-20
2021/12/22 10:14:26;;;;;;;21.48;12.07;;;;;;;3.50;44.99;101258.97;5067693;28;20032;-21
2021/12/22 10:16:54;;;;;;;22.55;12.73;;;;;;;4.05;44.75;101249.47;5067929;28;20032;-20
2021/12/22 10:19:20;;;;;;;22.27;12.88;;;;;;;4.46;42.72;101240.16;5067698;28;20036;-21
2021/12/22 10:21:55;;;;;;;54.60;23.67;;;;;;;5.03;42.59;101275.03;5067451;28;20408;-21
2021/12/22 10:24:38;;;;;;;69.70;31.33;;;;;;;5.00;41.86;101269.22;5067792;28;20048;-21
2021/12/22 10:27:05;;;;;;;81.00;35.03;;;;;;;5.69;41.93;101266.72;5067744;28;20036;-20
2021/12/22 10:29:32;;;;;;;35.83;17.83;;;;;;;5.81;41.70;101257.50;5067161;28;20135;-21
2021/12/22 10:32:05;;;;;;;21.92;12.82;;;;;;;5.86;39.93;101267.63;5067520;28;20094;-21
2021/12/22 10:34:30;;;;;;;20.58;12.40;;;;;;;5.54;41.17;101256.72;5050453;28;20025;-20
2021/12/22 10:36:56;;;;;;;20.05;11.05;;;;;;;5.52;41.70;101252.56;5067512;28;20423;-21
2021/12/22 10:39:22;;;;;;;15.85;10.32;;;;;;;5.03;41.86;101255.69;5067947;28;20036;-22
2021/12/22 10:41:48;;;;;;;17.92;10.95;;;;;;;4.78;41.54;101244.94;5067205;28;20059;-22
2021/12/22 10:44:14;;;;;;;15.50;10.45;;;;;;;5.32;41.02;101241.38;5068003;28;20137;-21
2021/12/22 10:46:39;;;;;;;16.25;10.50;;;;;;;4.87;42.78;101237.88;5067314;28;20424;-21
2021/12/22 10:49:19;;;;;;;15.57;9.70;;;;;;;4.92;42.03;101226.84;5067420;28;20028;-21
2021/12/22 10:52:05;;;;;;;17.17;11.73;;;;;;;5.77;41.99;101250.88;5069625;28;20044;-20
2021/12/22 10:54:38;;;;;;;17.20;10.65;;;;;;;4.93;42.31;101236.47;5071060;28;20049;-20
2021/12/22 10:57:09;;;;;;;14.73;9.13;;;;;;;5.00;42.73;101222.44;5071565;28;20040;-21
2021/12/22 10:59:45;;;;;;;18.98;10.98;;;;;;;5.42;42.50;101213.81;5071211;28;20039;-20
2021/12/22 11:02:11;;;;;;;19.90;11.93;;;;;;;5.67;40.45;101227.16;5072014;28;20123;-21
2021/12/22 11:04:42;;;;;;;19.08;12.35;;;;;;;6.10;40.22;101225.38;5071290;28;20153;-21
2021/12/22 11:07:15;;;;;;;19.17;11.57;;;;;;;5.98;39.72;101222.19;5071677;28;20475;-21
2021/12/22 11:09:41;;;;;;;22.92;15.52;;;;;;;6.98;39.82;101218.69;5070896;28;20025;-20
2021/12/22 11:12:07;;;;;;;16.83;10.38;;;;;;;6.16;41.14;101219.44;5071314;28;20404;-20
2021/12/22 11:14:36;;;;;;;17.80;12.07;;;;;;;5.94;40.59;101198.81;5071154;28;20077;-21
2021/12/22 11:17:15;;;;;;;25.25;14.55;;;;;;;7.03;39.14;101205.78;5070868;28;20035;-20
2021/12/22 11:19:44;;;;;;;60.33;29.83;;;;;;;7.32;36.95;101221.16;5070777;28;20037;-21
2021/12/22 11:22:14;;;;;;;;;;;;;;;7.39;36.14;101208.00;5071668;28;20028;-20
2021/12/22 11:24:44;;;;;;;21.35;11.75;;;;;;;7.36;38.23;101205.72;5071295;28;19912;-20
2021/12/22 11:27:11;;;;;;;19.60;12.20;;;;;;;7.43;37.52;101214.63;5070983;28;20037;-20
2021/12/22 11:29:39;;;;;;;19.63;12.90;;;;;;;7.47;37.39;101200.03;5070137;28;20090;-21
2021/12/22 11:32:05;;;;;;;20.07;12.80;;;;;;;8.09;35.24;101198.44;5070830;28;20043;-20